PORTS® Data Listing: 9414523 Redwood City, CA

CO-OPS RAW PORTS DATA

************************      PRELIMINARY DATA      ************************** 

     THIS RAW DATA HAS NOT BEEN SUBJECT TO THE NATIONAL OCEAN SERVICE'S        
     QUALITY CONTROL OR QUALITY ASSURANCE PROCEDURES AND DOES NOT MEET         
     THE CRITERIA AND STANDARDS OF OFFICIAL NATIONAL OCEAN SERVICE             
     DATA.  IT IS RELEASED FOR LIMITED PUBLIC USE AS PRELIMINARY DATA TO       
     BE USED ONLY WITH APPROPRIATE CAUTION.                                    

************************      PRELIMINARY DATA      ************************** 


       CD   -   Calendar date
       T    -   Time
       TZ   -   Timezone
       PW   -   Predicted water level (feet above MLLW)
       OW   -   Observed water level (feet above MLLW)
       WS   -   Wind speed (knots)
       WD   -   Wind direction (degrees true)
       WG   -   Wind gust (knots)
       AT   -   Air temperature (degrees farenheit)
       WT   -   Water temperature (degrees farenheit)
       AP   -   Air pressure (millibars)
       SA   -   Salinty (PSU - Practical Salinity Units)
       SG   -   Specific gravity
       RH   -   Relative humidity
       AG   -   Air gap (feet)
       VI   -   Visibility (nautical miles)

       ** NOTE **
       A variable that has its data fields filled with "9"s, indicates that
       data was not collected for that sample period.
       **********


STATION NAME: Redwood City (9414523)
****************************************************************************************************
    CD       T    TZ    PW     OW    WS   WD   WG    AT    WT    AP    SA    SG     RH    AG   VI
****************************************************************************************************
2020/02/22 15:48 PST    2.24   2.35   15  279   18  54.3  58.8 1017.4 -9.9 -9.999 -99.9 -99.99 -9.99
2020/02/22 15:54 PST    2.06   2.17   13  277   19  54.3  58.8 1017.5 -9.9 -9.999 -99.9 -99.99 -9.99
2020/02/22 16:00 PST    1.88   2.00   16  280   19  53.8  58.8 1017.4 -9.9 -9.999 -99.9 -99.99 -9.99
2020/02/22 16:06 PST    1.71   1.83   15  276   20  54.1  58.8 1017.5 -9.9 -9.999 -99.9 -99.99 -9.99
2020/02/22 16:12 PST    1.54   1.66   16  275   21  53.8  58.8 1017.5 -9.9 -9.999 -99.9 -99.99 -9.99
2020/02/22 16:18 PST    1.37   1.51   16  278   19  53.8  58.8 1017.6 -9.9 -9.999 -99.9 -99.99 -9.99
2020/02/22 16:24 PST    1.21   1.38   16  280   20  53.8  58.8 1017.5 -9.9 -9.999 -99.9 -99.99 -9.99
2020/02/22 16:30 PST    1.05   1.23   16  283   18  53.6  58.8 1017.5 -9.9 -9.999 -99.9 -99.99 -9.99
2020/02/22 16:36 PST    0.89   1.09   16  281   18  53.4  58.8 1017.6 -9.9 -9.999 -99.9 -99.99 -9.99
2020/02/22 16:42 PST    0.75   0.95   15  284   19  53.4  58.8 1017.7 -9.9 -9.999 -99.9 -99.99 -9.99
2020/02/22 16:48 PST    0.60   0.83   16  285   19  53.4  58.8 1017.8 -9.9 -9.999 -99.9 -99.99 -9.99
2020/02/22 16:54 PST    0.47   0.70   14  282   19  53.2  58.8 1017.9 -9.9 -9.999 -99.9 -99.99 -9.99
2020/02/22 17:00 PST    0.34   0.58   14  281   16  52.9  58.8 1018.0 -9.9 -9.999 -99.9 -99.99 -9.99
2020/02/22 17:06 PST    0.22   0.47   15  281   18  52.5  58.8 1018.0 -9.9 -9.999 -99.9 -99.99 -9.99
2020/02/22 17:12 PST    0.11   0.37   16  282   19  52.3  58.8 1018.1 -9.9 -9.999 -99.9 -99.99 -9.99
2020/02/22 17:18 PST    0.00   0.26   15  278   17  52.5  58.8 1018.1 -9.9 -9.999 -99.9 -99.99 -9.99
2020/02/22 17:24 PST   -0.10   0.16   14  279   18  52.3  58.8 1018.1 -9.9 -9.999 -99.9 -99.99 -9.99
2020/02/22 17:30 PST   -0.18   0.07   12  275   18  52.2  58.8 1018.1 -9.9 -9.999 -99.9 -99.99 -9.99
2020/02/22 17:36 PST   -0.26  -0.02   11  279   16  52.0  59.0 1018.2 -9.9 -9.999 -99.9 -99.99 -9.99
2020/02/22 17:42 PST   -0.33  -0.10   12  271   14  51.8  59.0 1018.2 -9.9 -9.999 -99.9 -99.99 -9.99
2020/02/22 17:48 PST   -0.38  -0.17   11  279   14  51.6  59.0 1018.3 -9.9 -9.999 -99.9 -99.99 -9.99
2020/02/22 17:54 PST   -0.43  -0.24   11  280   15  51.6  59.0 1018.3 -9.9 -9.999 -99.9 -99.99 -9.99
2020/02/22 18:00 PST   -0.46  -0.30   10  276   13  51.6  59.0 1018.5 -9.9 -9.999 -99.9 -99.99 -9.99
2020/02/22 18:06 PST   -0.49  -0.34   11  282   13  51.6  59.0 1018.5 -9.9 -9.999 -99.9 -99.99 -9.99
2020/02/22 18:12 PST   -0.50  -0.37   10  272   13  51.6  59.0 1018.5 -9.9 -9.999 -99.9 -99.99 -9.99
2020/02/22 18:18 PST   -0.50  -0.39   10  271   12  51.6  59.0 1018.5 -9.9 -9.999 -99.9 -99.99 -9.99
2020/02/22 18:24 PST   -0.49  -0.40    9  275   12  51.4  59.0 1018.7 -9.9 -9.999 -99.9 -99.99 -9.99
2020/02/22 18:30 PST   -0.48  -0.38    8  274   11  51.3  59.0 1018.8 -9.9 -9.999 -99.9 -99.99 -9.99
2020/02/22 18:36 PST   -0.45  -0.35    7  275    9  51.4  59.0 1018.9 -9.9 -9.999 -99.9 -99.99 -9.99
2020/02/22 18:42 PST   -0.41  -0.32    8  273   10  51.4  59.0 1019.0 -9.9 -9.999 -99.9 -99.99 -9.99
2020/02/22 18:48 PST   -0.36  -0.27    6  281    9  51.8  59.0 1019.1 -9.9 -9.999 -99.9 -99.99 -9.99
2020/02/22 18:54 PST   -0.30  -0.21    6  290    8  51.6  59.0 1019.2 -9.9 -9.999 -99.9 -99.99 -9.99
2020/02/22 19:00 PST   -0.23  -0.14    6  279    8  51.4  59.0 1019.2 -9.9 -9.999 -99.9 -99.99 -9.99
2020/02/22 19:06 PST   -0.15  -0.05    6  278    7  51.6  59.0 1019.2 -9.9 -9.999 -99.9 -99.99 -9.99
2020/02/22 19:12 PST   -0.06   0.04    5  281    6  51.4  59.0 1019.3 -9.9 -9.999 -99.9 -99.99 -9.99
2020/02/22 19:18 PST    0.04   0.14    5  270    6  51.3  59.0 1019.4 -9.9 -9.999 -99.9 -99.99 -9.99
2020/02/22 19:24 PST    0.14   0.25    6  278    8  51.1  59.0 1019.5 -9.9 -9.999 -99.9 -99.99 -9.99
2020/02/22 19:30 PST    0.26   0.36    6  283    7  50.9  59.0 1019.5 -9.9 -9.999 -99.9 -99.99 -9.99
2020/02/22 19:36 PST    0.38   0.49    5  281    7  50.9  59.0 1019.6 -9.9 -9.999 -99.9 -99.99 -9.99
2020/02/22 19:42 PST    0.50   0.63    6  277    8  50.9  59.0 1019.7 -9.9 -9.999 -99.9 -99.99 -9.99
2020/02/22 19:48 PST    0.64   0.76    6  288    8  50.9  59.0 1019.9 -9.9 -9.999 -99.9 -99.99 -9.99
2020/02/22 19:54 PST    0.78   0.91    5  276    7  51.1  59.0 1019.9 -9.9 -9.999 -99.9 -99.99 -9.99
2020/02/22 20:00 PST    0.92   1.07    6  270    7  51.3  59.0 1020.0 -9.9 -9.999 -99.9 -99.99 -9.99
2020/02/22 20:06 PST    1.07   1.23    7  270    9  51.4  59.0 1020.1 -9.9 -9.999 -99.9 -99.99 -9.99
2020/02/22 20:12 PST    1.23   1.39    9  270   10  51.3  59.0 1020.2 -9.9 -9.999 -99.9 -99.99 -9.99
2020/02/22 20:18 PST    1.39   1.57   10  266   12  51.4  59.0 1020.3 -9.9 -9.999 -99.9 -99.99 -9.99
2020/02/22 20:24 PST    1.56   1.74    9  262   13  51.4  59.0 1020.5 -9.9 -9.999 -99.9 -99.99 -9.99
2020/02/22 20:30 PST    1.73   1.93    8  258    9  51.6  59.0 1020.5 -9.9 -9.999 -99.9 -99.99 -9.99
2020/02/22 20:36 PST    1.90   2.12   11  265   13  51.6  59.0 1020.6 -9.9 -9.999 -99.9 -99.99 -9.99
2020/02/22 20:42 PST    2.07   2.30    8  267   11  51.6  59.0 1020.8 -9.9 -9.999 -99.9 -99.99 -9.99
2020/02/22 20:48 PST    2.25   2.48    9  258   11  51.8  59.0 1020.9 -9.9 -9.999 -99.9 -99.99 -9.99
2020/02/22 20:54 PST    2.43   2.68    9  259   13  51.6  59.0 1021.1 -9.9 -9.999 -99.9 -99.99 -9.99
2020/02/22 21:00 PST    2.61   2.87   11  260   14  51.6  59.0 1021.2 -9.9 -9.999 -99.9 -99.99 -9.99
2020/02/22 21:06 PST    2.79   3.06   16  270   22  51.8  59.0 1021.3 -9.9 -9.999 -99.9 -99.99 -9.99
2020/02/22 21:12 PST    2.98   3.24   12  270   16  52.0  59.0 1021.5 -9.9 -9.999 -99.9 -99.99 -9.99
2020/02/22 21:18 PST    3.16   3.41   11  257   17  52.0  59.0 1021.5 -9.9 -9.999 -99.9 -99.99 -9.99
2020/02/22 21:24 PST    3.35   3.60    9  262   12  52.2  59.0 1021.6 -9.9 -9.999 -99.9 -99.99 -9.99
2020/02/22 21:30 PST    3.54   3.79   11  247   16  52.3  59.0 1021.8 -9.9 -9.999 -99.9 -99.99 -9.99
2020/02/22 21:36 PST    3.72   3.97   10  254   11  52.3  59.0 1021.8 -9.9 -9.999 -99.9 -99.99 -9.99
2020/02/22 21:42 PST    3.91   4.16    7  246   11  52.3  59.0 1021.8 -9.9 -9.999 -99.9 -99.99 -9.99
2020/02/22 21:48 PST    4.09   4.34    8  251   11  52.0  59.0 1021.9 -9.9 -9.999 -99.9 -99.99 -9.99
2020/02/22 21:54 PST    4.27   4.51   13  252   17  52.2  59.0 1022.0 -9.9 -9.999 -99.9 -99.99 -9.99
2020/02/22 22:00 PST    4.45   4.68   10  244   14  52.2  59.0 1022.1 -9.9 -9.999 -99.9 -99.99 -9.99
2020/02/22 22:06 PST    4.63   4.84   10  241   13  52.3  59.0 1022.1 -9.9 -9.999 -99.9 -99.99 -9.99
2020/02/22 22:12 PST    4.81   4.99   11  238   16  52.3  59.0 1022.1 -9.9 -9.999 -99.9 -99.99 -9.99
2020/02/22 22:18 PST    4.98   5.14   11  241   14  52.2  59.0 1022.1 -9.9 -9.999 -99.9 -99.99 -9.99
2020/02/22 22:24 PST    5.15   5.28   11  246   14  52.3  59.0 1022.1 -9.9 -9.999 -99.9 -99.99 -9.99
2020/02/22 22:30 PST    5.31   5.43   12  244   16  52.3  59.0 1022.2 -9.9 -9.999 -99.9 -99.99 -9.99
2020/02/22 22:36 PST    5.47   5.59    9  249   14  52.5  59.0 1022.2 -9.9 -9.999 -99.9 -99.99 -9.99
2020/02/22 22:42 PST    5.63   5.74   10  246   13  52.3  59.0 1022.2 -9.9 -9.999 -99.9 -99.99 -9.99
2020/02/22 22:48 PST    5.78   5.89    9  263   13  52.3  59.0 1022.3 -9.9 -9.999 -99.9 -99.99 -9.99
2020/02/22 22:54 PST    5.93   6.04   10  250   13  52.3  59.0 1022.4 -9.9 -9.999 -99.9 -99.99 -9.99
2020/02/22 23:00 PST    6.07   6.18   11  242   15  52.0  59.0 1022.4 -9.9 -9.999 -99.9 -99.99 -9.99
2020/02/22 23:06 PST    6.20   6.33   11  252   14  52.0  59.0 1022.4 -9.9 -9.999 -99.9 -99.99 -9.99
2020/02/22 23:12 PST    6.33   6.45   12  251   13  52.2  59.0 1022.4 -9.9 -9.999 -99.9 -99.99 -9.99
2020/02/22 23:18 PST    6.45   6.56   13  253   15  52.0  59.0 1022.5 -9.9 -9.999 -99.9 -99.99 -9.99
2020/02/22 23:24 PST    6.56   6.67   12  262   15  51.8  59.0 1022.5 -9.9 -9.999 -99.9 -99.99 -9.99
2020/02/22 23:30 PST    6.67   6.78   11  253   14  51.8  59.0 1022.5 -9.9 -9.999 -99.9 -99.99 -9.99
2020/02/22 23:36 PST    6.77   6.85   12  248   16  51.8  59.0 1022.5 -9.9 -9.999 -99.9 -99.99 -9.99
2020/02/22 23:42 PST    6.86   6.92   11  243   14  51.6  58.8 1022.5 -9.9 -9.999 -99.9 -99.99 -9.99
2020/02/22 23:48 PST    6.94   6.98   10  236   15  51.6  58.8 1022.5 -9.9 -9.999 -99.9 -99.99 -9.99
2020/02/22 23:54 PST    7.01   7.03   10  241   13  51.6  58.8 1022.5 -9.9 -9.999 -99.9 -99.99 -9.99
2020/02/23 00:00 PST    7.08   7.08   11  249   14  51.4  58.8 1022.5 -9.9 -9.999 -99.9 -99.99 -9.99
2020/02/23 00:06 PST    7.14   7.12   13  250   16  51.4  58.8 1022.5 -9.9 -9.999 -99.9 -99.99 -9.99
2020/02/23 00:12 PST    7.19   7.17   12  252   16  51.6  58.8 1022.5 -9.9 -9.999 -99.9 -99.99 -9.99
2020/02/23 00:18 PST    7.23   7.22   11  276   16  51.3  58.8 1022.5 -9.9 -9.999 -99.9 -99.99 -9.99
2020/02/23 00:24 PST    7.26   7.25   16  260   18  51.3  58.8 1022.5 -9.9 -9.999 -99.9 -99.99 -9.99
2020/02/23 00:30 PST    7.28   7.28   10  262   16  51.6  58.8 1022.5 -9.9 -9.999 -99.9 -99.99 -9.99
2020/02/23 00:36 PST    7.29   7.30   14  263   17  51.3  58.8 1022.7 -9.9 -9.999 -99.9 -99.99 -9.99
2020/02/23 00:42 PST    7.30   7.32   12  264   15  51.3  58.8 1022.7 -9.9 -9.999 -99.9 -99.99 -9.99
2020/02/23 00:48 PST    7.30   7.33   12  257   16  51.3  58.8 1022.7 -9.9 -9.999 -99.9 -99.99 -9.99
2020/02/23 00:54 PST    7.28   7.33   10  259   13  51.3  58.8 1022.6 -9.9 -9.999 -99.9 -99.99 -9.99
2020/02/23 01:00 PST    7.26   7.31    7  261   11  51.3  58.8 1022.6 -9.9 -9.999 -99.9 -99.99 -9.99
2020/02/23 01:06 PST    7.24   7.29    8  261    9  51.1  58.8 1022.7 -9.9 -9.999 -99.9 -99.99 -9.99
2020/02/23 01:12 PST    7.20   7.26    6  264    8  51.1  58.8 1022.7 -9.9 -9.999 -99.9 -99.99 -9.99
2020/02/23 01:18 PST    7.16   7.22    6  260    7  51.1  58.8 1022.9 -9.9 -9.999 -99.9 -99.99 -9.99
2020/02/23 01:24 PST    7.10   7.17    8  270   10  51.3  58.8 1023.1 -9.9 -9.999 -99.9 -99.99 -9.99
2020/02/23 01:30 PST    7.04   7.11    9  263   10  51.3  58.8 1023.2 -9.9 -9.999 -99.9 -99.99 -9.99
2020/02/23 01:36 PST    6.98   7.01   13  249   15  51.3  58.8 1023.3 -9.9 -9.999 -99.9 -99.99 -9.99
2020/02/23 01:42 PST    6.90   6.91   14  265   18  51.1  58.8 1023.4 -9.9 -9.999 -99.9 -99.99 -9.99
2020/02/23 01:48 PST    6.82   6.81   12  256   16  51.3  58.8 1023.5 -9.9 -9.999 -99.9 -99.99 -9.99
2020/02/23 01:54 PST    6.74   6.71   11  260   15  51.3  58.8 1023.6 -9.9 -9.999 -99.9 -99.99 -9.99
2020/02/23 02:00 PST    6.65   6.61   12  262   14  51.4  58.8 1023.8 -9.9 -9.999 -99.9 -99.99 -9.99
2020/02/23 02:06 PST    6.55   6.52   12  257   17  51.4  58.8 1023.9 -9.9 -9.999 -99.9 -99.99 -9.99
2020/02/23 02:12 PST    6.45   6.44   10  260   13  51.3  58.8 1023.8 -9.9 -9.999 -99.9 -99.99 -9.99
2020/02/23 02:18 PST    6.34   6.36    7  252   10  51.4  58.8 1023.7 -9.9 -9.999 -99.9 -99.99 -9.99
2020/02/23 02:24 PST    6.23   6.28    8  249   10  51.3  58.8 1023.7 -9.9 -9.999 -99.9 -99.99 -9.99
2020/02/23 02:30 PST    6.11   6.17    7  262   11  51.3  58.8 1023.8 -9.9 -9.999 -99.9 -99.99 -9.99
2020/02/23 02:36 PST    5.99   6.06    8  270   12  51.4  58.8 1023.8 -9.9 -9.999 -99.9 -99.99 -9.99
2020/02/23 02:42 PST    5.87   5.95    7  262   10  51.3  58.8 1023.8 -9.9 -9.999 -99.9 -99.99 -9.99
2020/02/23 02:48 PST    5.74   5.82    7  263    9  51.4  58.8 1023.7 -9.9 -9.999 -99.9 -99.99 -9.99
2020/02/23 02:54 PST    5.61   5.70   11  258   12  50.9  58.8 1023.7 -9.9 -9.999 -99.9 -99.99 -9.99
2020/02/23 03:00 PST    5.48   5.57    9  250   11  51.3  58.8 1023.6 -9.9 -9.999 -99.9 -99.99 -9.99
2020/02/23 03:06 PST    5.34   5.43    9  257   10  50.9  58.8 1023.6 -9.9 -9.999 -99.9 -99.99 -9.99
2020/02/23 03:12 PST    5.21   5.29    9  268   13  50.7  58.8 1023.7 -9.9 -9.999 -99.9 -99.99 -9.99
2020/02/23 03:18 PST    5.07   5.14   10  286   13  50.7  58.8 1023.7 -9.9 -9.999 -99.9 -99.99 -9.99
2020/02/23 03:24 PST    4.93   4.98    9  286   11  50.5  58.8 1023.7 -9.9 -9.999 -99.9 -99.99 -9.99
2020/02/23 03:30 PST    4.79   4.82    7  282   11  50.7  58.8 1023.8 -9.9 -9.999 -99.9 -99.99 -9.99
2020/02/23 03:36 PST    4.65   4.65    8  273   11  50.5  58.8 1023.8 -9.9 -9.999 -99.9 -99.99 -9.99
2020/02/23 03:42 PST    4.50   4.49    6  235    9  50.7  58.6 1023.8 -9.9 -9.999 -99.9 -99.99 -9.99
2020/02/23 03:48 PST    4.36   4.31    6  228    7  50.7  58.6 1023.7 -9.9 -9.999 -99.9 -99.99 -9.99
2020/02/23 03:54 PST    4.22   4.16    7  242   10  50.5  58.6 1023.7 -9.9 -9.999 -99.9 -99.99 -9.99
2020/02/23 04:00 PST    4.08   4.02    6  235    8  50.4  58.6 1023.8 -9.9 -9.999 -99.9 -99.99 -9.99
2020/02/23 04:06 PST    3.94   3.88    7  245    9  50.5  58.6 1023.8 -9.9 -9.999 -99.9 -99.99 -9.99
2020/02/23 04:12 PST    3.80   3.74    8  244   10  50.5  58.6 1023.8 -9.9 -9.999 -99.9 -99.99 -9.99
2020/02/23 04:18 PST    3.66   3.60    6  245    9  50.5  58.6 1023.8 -9.9 -9.999 -99.9 -99.99 -9.99
2020/02/23 04:24 PST    3.52   3.47    5  259    7  50.5  58.6 1024.0 -9.9 -9.999 -99.9 -99.99 -9.99
2020/02/23 04:30 PST    3.39   3.36    5  246    6  50.5  58.6 1024.0 -9.9 -9.999 -99.9 -99.99 -9.99
2020/02/23 04:36 PST    3.26   3.24    6  251    7  50.5  58.6 1024.1 -9.9 -9.999 -99.9 -99.99 -9.99
2020/02/23 04:42 PST    3.13   3.11    6  258    9  50.5  58.6 1024.3 -9.9 -9.999 -99.9 -99.99 -9.99
2020/02/23 04:48 PST    3.01   2.99    7  257    9  50.5  58.6 1024.5 -9.9 -9.999 -99.9 -99.99 -9.99
2020/02/23 04:54 PST    2.90   2.88    7  255    9  50.4  58.6 1024.4 -9.9 -9.999 -99.9 -99.99 -9.99
2020/02/23 05:00 PST    2.78   2.77   11  257   14  50.5  58.6 1024.5 -9.9 -9.999 -99.9 -99.99 -9.99
2020/02/23 05:06 PST    2.68   2.65   11  254   13  50.9  58.6 1024.6 -9.9 -9.999 -99.9 -99.99 -9.99
2020/02/23 05:12 PST    2.58   2.53    9  255   11  50.9  58.6 1024.7 -9.9 -9.999 -99.9 -99.99 -9.99
2020/02/23 05:18 PST    2.49   2.42    8  258   10  50.5  58.6 1024.8 -9.9 -9.999 -99.9 -99.99 -9.99
2020/02/23 05:24 PST    2.40   2.32   10  243   12  50.7  58.6 1024.9 -9.9 -9.999 -99.9 -99.99 -9.99
2020/02/23 05:30 PST    2.32   2.22   10  242   12  50.9  58.6 1024.9 -9.9 -9.999 -99.9 -99.99 -9.99
2020/02/23 05:36 PST    2.25   2.15    9  251   11  50.7  58.5 1024.9 -9.9 -9.999 -99.9 -99.99 -9.99
2020/02/23 05:42 PST    2.19   2.08    9  250   12  50.9  58.5 1025.1 -9.9 -9.999 -99.9 -99.99 -9.99
2020/02/23 05:48 PST    2.14   2.03    6  245    9  50.9  58.5 1025.1 -9.9 -9.999 -99.9 -99.99 -9.99
2020/02/23 05:54 PST    2.09   1.99    7  259    9  50.9  58.5 1025.2 -9.9 -9.999 -99.9 -99.99 -9.99
2020/02/23 06:00 PST    2.06   1.97    7  266    9  51.1  58.5 1025.2 -9.9 -9.999 -99.9 -99.99 -9.99
2020/02/23 06:06 PST    2.03   1.97    7  258    9  50.7  58.5 1025.3 -9.9 -9.999 -99.9 -99.99 -9.99
2020/02/23 06:12 PST    2.02   1.97    5  262    8  51.1  58.5 1025.4 -9.9 -9.999 -99.9 -99.99 -9.99
2020/02/23 06:18 PST    2.02   1.99    5  256    7  50.9  58.5 1025.5 -9.9 -9.999 -99.9 -99.99 -9.99
2020/02/23 06:24 PST    2.02   2.03    5  262    6  50.9  58.5 1025.6 -9.9 -9.999 -99.9 -99.99 -9.99
2020/02/23 06:30 PST    2.04   2.08    8  257    9  50.7  58.5 1025.7 -9.9 -9.999 -99.9 -99.99 -9.99
2020/02/23 06:36 PST    2.06   2.14    5  278   10  50.5  58.5 1025.8 -9.9 -9.999 -99.9 -99.99 -9.99
2020/02/23 06:42 PST    2.10   2.20    6  271    9  50.7  58.5 1026.0 -9.9 -9.999 -99.9 -99.99 -9.99
2020/02/23 06:48 PST    2.15   2.25    7  257   10  50.7  58.3 1026.0 -9.9 -9.999 -99.9 -99.99 -9.99
2020/02/23 06:54 PST    2.20   2.31    9  266   11  50.7  58.3 1026.1 -9.9 -9.999 -99.9 -99.99 -9.99
2020/02/23 07:00 PST    2.27   2.38    7  259   11  50.7  58.3 1026.0 -9.9 -9.999 -99.9 -99.99 -9.99
2020/02/23 07:06 PST    2.34   2.46    6  226    8  50.7  58.3 1026.1 -9.9 -9.999 -99.9 -99.99 -9.99
2020/02/23 07:12 PST    2.42   2.54    5  232    7  50.9  58.3 1026.2 -9.9 -9.999 -99.9 -99.99 -9.99
2020/02/23 07:18 PST    2.52   2.62    7  245    8  50.9  58.3 1026.3 -9.9 -9.999 -99.9 -99.99 -9.99
2020/02/23 07:24 PST    2.62   2.71    6  249    8  50.5  58.3 1026.3 -9.9 -9.999 -99.9 -99.99 -9.99
2020/02/23 07:30 PST    2.72   2.81    6  252    9  50.7  58.3 1026.6 -9.9 -9.999 -99.9 -99.99 -9.99
2020/02/23 07:36 PST    2.84   2.92   10  256   13  50.5  58.3 1026.8 -9.9 -9.999 -99.9 -99.99 -9.99
2020/02/23 07:42 PST    2.96   3.04   13  246   15  50.9  58.3 1027.0 -9.9 -9.999 -99.9 -99.99 -9.99
2020/02/23 07:48 PST    3.08   3.17    9  230   15  50.9  58.3 1027.1 -9.9 -9.999 -99.9 -99.99 -9.99
2020/02/23 07:54 PST    3.22   3.31    7  231   12  51.1  58.3 1027.2 -9.9 -9.999 -99.9 -99.99 -9.99
2020/02/23 08:00 PST    3.35   3.47   11  240   14  51.1  58.3 1027.3 -9.9 -9.999 -99.9 -99.99 -9.99
2020/02/23 08:06 PST    3.49   3.62    8  239   14  51.4  58.3 1027.4 -9.9 -9.999 -99.9 -99.99 -9.99
2020/02/23 08:12 PST    3.64   3.80   10  247   15  51.6  58.3 1027.5 -9.9 -9.999 -99.9 -99.99 -9.99
2020/02/23 08:18 PST    3.79   3.97   11  251   15  51.6  58.3 1027.6 -9.9 -9.999 -99.9 -99.99 -9.99
2020/02/23 08:24 PST    3.94   4.15   12  243   16  51.6  58.1 1027.7 -9.9 -9.999 -99.9 -99.99 -9.99
2020/02/23 08:30 PST    4.09   4.33    8  238   15  51.6  58.1 1027.8 -9.9 -9.999 -99.9 -99.99 -9.99
2020/02/23 08:36 PST    4.25   4.50    8  233   11  51.8  58.1 1027.9 -9.9 -9.999 -99.9 -99.99 -9.99
2020/02/23 08:42 PST    4.41   4.68    8  228   10  51.8  58.1 1028.0 -9.9 -9.999 -99.9 -99.99 -9.99
2020/02/23 08:48 PST    4.57   4.85   12  247   13  51.6  58.1 1028.1 -9.9 -9.999 -99.9 -99.99 -9.99
2020/02/23 08:54 PST    4.73   5.02    9  236   15  52.2  58.1 1028.2 -9.9 -9.999 -99.9 -99.99 -9.99
2020/02/23 09:00 PST    4.88   5.18   13  245   15  51.6  58.1 1028.3 -9.9 -9.999 -99.9 -99.99 -9.99
2020/02/23 09:06 PST    5.04   5.34   11  244   14  51.8  58.1 1028.4 -9.9 -9.999 -99.9 -99.99 -9.99
2020/02/23 09:12 PST    5.20   5.50   10  241   13  52.0  58.1 1028.5 -9.9 -9.999 -99.9 -99.99 -9.99
2020/02/23 09:18 PST    5.36   5.66   11  241   14  51.8  58.1 1028.6 -9.9 -9.999 -99.9 -99.99 -9.99
2020/02/23 09:24 PST    5.51   5.82   10  242   12  52.0  58.1 1028.6 -9.9 -9.999 -99.9 -99.99 -9.99
2020/02/23 09:30 PST    5.67   5.97    8  244   11  52.2  58.1 1028.7 -9.9 -9.999 -99.9 -99.99 -9.99
2020/02/23 09:36 PST    5.82   6.11    7  242   10  52.3  58.1 1028.7 -9.9 -9.999 -99.9 -99.99 -9.99
2020/02/23 09:42 PST    5.97 -99.99 -999 -999 -999 -99.9 -99.9 -999.9 -9.9 -9.999 -99.9 -99.99 -9.99
2020/02/23 09:48 PST    6.11 -99.99 -999 -999 -999 -99.9 -99.9 -999.9 -9.9 -9.999 -99.9 -99.99 -9.99
2020/02/23 09:54 PST    6.25 -99.99 -999 -999 -999 -99.9 -99.9 -999.9 -9.9 -9.999 -99.9 -99.99 -9.99
2020/02/23 10:00 PST    6.39 -99.99 -999 -999 -999 -99.9 -99.9 -999.9 -9.9 -9.999 -99.9 -99.99 -9.99
2020/02/23 10:06 PST    6.53 -99.99 -999 -999 -999 -99.9 -99.9 -999.9 -9.9 -9.999 -99.9 -99.99 -9.99
2020/02/23 10:12 PST    6.66 -99.99 -999 -999 -999 -99.9 -99.9 -999.9 -9.9 -9.999 -99.9 -99.99 -9.99
2020/02/23 10:18 PST    6.78 -99.99 -999 -999 -999 -99.9 -99.9 -999.9 -9.9 -9.999 -99.9 -99.99 -9.99
2020/02/23 10:24 PST    6.90 -99.99 -999 -999 -999 -99.9 -99.9 -999.9 -9.9 -9.999 -99.9 -99.99 -9.99
2020/02/23 10:30 PST    7.02 -99.99 -999 -999 -999 -99.9 -99.9 -999.9 -9.9 -9.999 -99.9 -99.99 -9.99
2020/02/23 10:36 PST    7.13 -99.99 -999 -999 -999 -99.9 -99.9 -999.9 -9.9 -9.999 -99.9 -99.99 -9.99
2020/02/23 10:42 PST    7.23 -99.99 -999 -999 -999 -99.9 -99.9 -999.9 -9.9 -9.999 -99.9 -99.99 -9.99
2020/02/23 10:48 PST    7.33 -99.99 -999 -999 -999 -99.9 -99.9 -999.9 -9.9 -9.999 -99.9 -99.99 -9.99
2020/02/23 10:54 PST    7.42 -99.99 -999 -999 -999 -99.9 -99.9 -999.9 -9.9 -9.999 -99.9 -99.99 -9.99
2020/02/23 11:00 PST    7.51 -99.99 -999 -999 -999 -99.9 -99.9 -999.9 -9.9 -9.999 -99.9 -99.99 -9.99
2020/02/23 11:06 PST    7.59 -99.99 -999 -999 -999 -99.9 -99.9 -999.9 -9.9 -9.999 -99.9 -99.99 -9.99
2020/02/23 11:12 PST    7.66 -99.99 -999 -999 -999 -99.9 -99.9 -999.9 -9.9 -9.999 -99.9 -99.99 -9.99
2020/02/23 11:18 PST    7.72 -99.99 -999 -999 -999 -99.9 -99.9 -999.9 -9.9 -9.999 -99.9 -99.99 -9.99
2020/02/23 11:24 PST    7.78 -99.99 -999 -999 -999 -99.9 -99.9 -999.9 -9.9 -9.999 -99.9 -99.99 -9.99
2020/02/23 11:30 PST    7.82 -99.99 -999 -999 -999 -99.9 -99.9 -999.9 -9.9 -9.999 -99.9 -99.99 -9.99
2020/02/23 11:36 PST    7.86 -99.99 -999 -999 -999 -99.9 -99.9 -999.9 -9.9 -9.999 -99.9 -99.99 -9.99
2020/02/23 11:42 PST    7.90 -99.99 -999 -999 -999 -99.9 -99.9 -999.9 -9.9 -9.999 -99.9 -99.99 -9.99
2020/02/23 11:48 PST    7.92 -99.99 -999 -999 -999 -99.9 -99.9 -999.9 -9.9 -9.999 -99.9 -99.99 -9.99
2020/02/23 11:54 PST    7.93 -99.99 -999 -999 -999 -99.9 -99.9 -999.9 -9.9 -9.999 -99.9 -99.99 -9.99
2020/02/23 12:00 PST    7.94 -99.99 -999 -999 -999 -99.9 -99.9 -999.9 -9.9 -9.999 -99.9 -99.99 -9.99
2020/02/23 12:06 PST    7.94 -99.99 -999 -999 -999 -99.9 -99.9 -999.9 -9.9 -9.999 -99.9 -99.99 -9.99
2020/02/23 12:12 PST    7.93 -99.99 -999 -999 -999 -99.9 -99.9 -999.9 -9.9 -9.999 -99.9 -99.99 -9.99
2020/02/23 12:18 PST    7.91 -99.99 -999 -999 -999 -99.9 -99.9 -999.9 -9.9 -9.999 -99.9 -99.99 -9.99
2020/02/23 12:24 PST    7.88 -99.99 -999 -999 -999 -99.9 -99.9 -999.9 -9.9 -9.999 -99.9 -99.99 -9.99
2020/02/23 12:30 PST    7.85 -99.99 -999 -999 -999 -99.9 -99.9 -999.9 -9.9 -9.999 -99.9 -99.99 -9.99
2020/02/23 12:36 PST    7.81 -99.99 -999 -999 -999 -99.9 -99.9 -999.9 -9.9 -9.999 -99.9 -99.99 -9.99
2020/02/23 12:42 PST    7.75 -99.99 -999 -999 -999 -99.9 -99.9 -999.9 -9.9 -9.999 -99.9 -99.99 -9.99
2020/02/23 12:48 PST    7.69 -99.99 -999 -999 -999 -99.9 -99.9 -999.9 -9.9 -9.999 -99.9 -99.99 -9.99
2020/02/23 12:54 PST    7.62 -99.99 -999 -999 -999 -99.9 -99.9 -999.9 -9.9 -9.999 -99.9 -99.99 -9.99
2020/02/23 13:00 PST    7.55 -99.99 -999 -999 -999 -99.9 -99.9 -999.9 -9.9 -9.999 -99.9 -99.99 -9.99
2020/02/23 13:06 PST    7.46 -99.99 -999 -999 -999 -99.9 -99.9 -999.9 -9.9 -9.999 -99.9 -99.99 -9.99
2020/02/23 13:12 PST    7.37 -99.99 -999 -999 -999 -99.9 -99.9 -999.9 -9.9 -9.999 -99.9 -99.99 -9.99
2020/02/23 13:18 PST    7.27 -99.99 -999 -999 -999 -99.9 -99.9 -999.9 -9.9 -9.999 -99.9 -99.99 -9.99
2020/02/23 13:24 PST    7.16 -99.99 -999 -999 -999 -99.9 -99.9 -999.9 -9.9 -9.999 -99.9 -99.99 -9.99
2020/02/23 13:30 PST    7.05 -99.99 -999 -999 -999 -99.9 -99.9 -999.9 -9.9 -9.999 -99.9 -99.99 -9.99
2020/02/23 13:36 PST    6.93 -99.99 -999 -999 -999 -99.9 -99.9 -999.9 -9.9 -9.999 -99.9 -99.99 -9.99
2020/02/23 13:42 PST    6.81 -99.99 -999 -999 -999 -99.9 -99.9 -999.9 -9.9 -9.999 -99.9 -99.99 -9.99
2020/02/23 13:48 PST    6.67 -99.99 -999 -999 -999 -99.9 -99.9 -999.9 -9.9 -9.999 -99.9 -99.99 -9.99
2020/02/23 13:54 PST    6.54 -99.99 -999 -999 -999 -99.9 -99.9 -999.9 -9.9 -9.999 -99.9 -99.99 -9.99
2020/02/23 14:00 PST    6.39 -99.99 -999 -999 -999 -99.9 -99.9 -999.9 -9.9 -9.999 -99.9 -99.99 -9.99
2020/02/23 14:06 PST    6.24 -99.99 -999 -999 -999 -99.9 -99.9 -999.9 -9.9 -9.999 -99.9 -99.99 -9.99
2020/02/23 14:12 PST    6.09 -99.99 -999 -999 -999 -99.9 -99.9 -999.9 -9.9 -9.999 -99.9 -99.99 -9.99
2020/02/23 14:18 PST    5.94 -99.99 -999 -999 -999 -99.9 -99.9 -999.9 -9.9 -9.999 -99.9 -99.99 -9.99
2020/02/23 14:24 PST    5.77 -99.99 -999 -999 -999 -99.9 -99.9 -999.9 -9.9 -9.999 -99.9 -99.99 -9.99
2020/02/23 14:30 PST    5.61 -99.99 -999 -999 -999 -99.9 -99.9 -999.9 -9.9 -9.999 -99.9 -99.99 -9.99
2020/02/23 14:36 PST    5.44 -99.99 -999 -999 -999 -99.9 -99.9 -999.9 -9.9 -9.999 -99.9 -99.99 -9.99
2020/02/23 14:42 PST    5.27 -99.99 -999 -999 -999 -99.9 -99.9 -999.9 -9.9 -9.999 -99.9 -99.99 -9.99
2020/02/23 14:48 PST    5.10 -99.99 -999 -999 -999 -99.9 -99.9 -999.9 -9.9 -9.999 -99.9 -99.99 -9.99
2020/02/23 14:54 PST    4.93 -99.99 -999 -999 -999 -99.9 -99.9 -999.9 -9.9 -9.999 -99.9 -99.99 -9.99
2020/02/23 15:00 PST    4.75 -99.99 -999 -999 -999 -99.9 -99.9 -999.9 -9.9 -9.999 -99.9 -99.99 -9.99
2020/02/23 15:06 PST    4.57 -99.99 -999 -999 -999 -99.9 -99.9 -999.9 -9.9 -9.999 -99.9 -99.99 -9.99
2020/02/23 15:12 PST    4.39 -99.99 -999 -999 -999 -99.9 -99.9 -999.9 -9.9 -9.999 -99.9 -99.99 -9.99
2020/02/23 15:18 PST    4.21 -99.99 -999 -999 -999 -99.9 -99.9 -999.9 -9.9 -9.999 -99.9 -99.99 -9.99
2020/02/23 15:24 PST    4.03 -99.99 -999 -999 -999 -99.9 -99.9 -999.9 -9.9 -9.999 -99.9 -99.99 -9.99
2020/02/23 15:30 PST    3.85 -99.99 -999 -999 -999 -99.9 -99.9 -999.9 -9.9 -9.999 -99.9 -99.99 -9.99
2020/02/23 15:36 PST    3.66 -99.99 -999 -999 -999 -99.9 -99.9 -999.9 -9.9 -9.999 -99.9 -99.99 -9.99
2020/02/23 15:42 PST    3.48 -99.99 -999 -999 -999 -99.9 -99.9 -999.9 -9.9 -9.999 -99.9 -99.99 -9.99
2020/02/23 15:48 PST    3.30 -99.99 -999 -999 -999 -99.9 -99.9 -999.9 -9.9 -9.999 -99.9 -99.99 -9.99